Time;durP1;ratioP1;P1;durP2;ratioP2;P2;SDS_P1;SDS_P2;PMS_P1;PMS_P2;Temp;Humidity;BMP_temperature;BMP_pressure;BME280_temperature;BME280_humidity;BME280_pressure;Samples;Min_cycle;Max_cycle;Signal;HPM_P1;HPM_P2
2023/09/07 00:00:57;;;;;;;4.53;1.92;;;;;;;24.04;48.07;101254.66;5098499;28;20055;-79
2023/09/07 00:03:51;;;;;;;2.30;1.67;;;;;;;24.06;47.92;101258.66;5098063;28;20047;-80
2023/09/07 00:06:46;;;;;;;1.90;1.50;;;;;;;24.08;47.88;101253.50;5102893;28;20111;-80
2023/09/07 00:09:41;;;;;;;3.53;1.70;;;;;;;24.01;48.03;101250.72;5100341;28;20047;-80
2023/09/07 00:12:35;;;;;;;3.20;1.80;;;;;;;24.01;48.08;101244.34;5098200;28;20043;-80
2023/09/07 00:15:30;;;;;;;5.45;2.08;;;;;;;24.06;47.86;101243.97;5101316;28;20047;-80
2023/09/07 00:18:22;;;;;;;2.87;1.93;;;;;;;24.06;47.90;101246.75;5097653;28;20039;-80
2023/09/07 00:21:16;;;;;;;2.78;1.80;;;;;;;24.07;47.93;101248.34;5097972;28;20059;-79
2023/09/07 00:24:11;;;;;;;3.55;1.92;;;;;;;24.05;47.95;101250.72;5100386;28;20051;-79
2023/09/07 00:27:05;;;;;;;3.83;1.60;;;;;;;24.04;47.92;101247.13;5098773;28;20407;-80
2023/09/07 00:29:57;;;;;;;;;;;;;;;24.04;48.12;101246.34;5098559;28;20039;-80
2023/09/07 00:32:52;;;;;;;3.67;1.60;;;;;;;24.00;48.02;101235.22;5097872;28;20290;-80
2023/09/07 00:35:47;;;;;;;4.07;1.75;;;;;;;24.01;48.11;101247.94;5095726;28;20051;-80
2023/09/07 00:38:41;;;;;;;9.75;1.65;;;;;;;24.01;48.09;101236.81;5096825;28;20403;-80
2023/09/07 00:41:36;;;;;;;7.80;1.85;;;;;;;24.06;48.22;101247.53;5097457;28;20043;-80
2023/09/07 00:44:30;;;;;;;2.10;1.52;;;;;;;24.00;48.53;101243.56;5097768;28;20051;-80
2023/09/07 00:47:24;;;;;;;2.13;1.33;;;;;;;24.05;48.15;101239.59;5099662;28;20683;-80
2023/09/07 00:50:18;;;;;;;3.30;1.63;;;;;;;24.05;48.23;101234.03;5097358;28;20067;-80
2023/09/07 00:53:14;;;;;;;4.60;1.65;;;;;;;24.07;48.14;101238.03;5097622;28;20046;-79
2023/09/07 00:56:09;;;;;;;3.72;2.13;;;;;;;24.07;48.14;101242.78;5098827;28;20054;-80
2023/09/07 00:59:02;;;;;;;4.88;1.58;;;;;;;24.06;48.27;101238.41;5098119;28;20043;-79
2023/09/07 01:01:57;;;;;;;2.17;1.55;;;;;;;24.02;48.07;101238.41;5097673;28;20047;-79
2023/09/07 01:04:51;;;;;;;5.82;1.95;;;;;;;24.02;47.93;101235.63;5098562;28;20039;-79
2023/09/07 01:07:55;;;;;;;3.67;1.92;;;;;;;24.04;48.05;101232.44;5098514;28;20051;-79
2023/09/07 01:10:50;;;;;;;7.20;2.13;;;;;;;24.01;48.03;101233.25;5105688;28;20039;-79
2023/09/07 01:13:45;;;;;;;3.00;1.60;;;;;;;24.01;48.07;101236.03;5122015;28;20054;-80
2023/09/07 01:16:43;;;;;;;2.15;1.40;;;;;;;23.99;47.98;101222.50;5119839;28;20051;-80
2023/09/07 01:19:37;;;;;;;4.25;1.77;;;;;;;24.00;47.85;101229.66;5117029;28;20050;-79
2023/09/07 01:22:32;;;;;;;7.68;2.03;;;;;;;24.00;47.93;101226.88;5119875;28;20042;-80
2023/09/07 01:25:26;;;;;;;6.50;1.67;;;;;;;24.00;47.97;101226.09;5118635;28;20047;-79
2023/09/07 01:28:21;;;;;;;2.80;1.70;;;;;;;23.98;48.25;101234.81;5121530;28;20050;-79
2023/09/07 01:31:15;;;;;;;2.38;1.60;;;;;;;23.96;48.22;101233.63;5118594;28;20052;-80
2023/09/07 01:34:11;;;;;;;3.22;1.48;;;;;;;23.93;48.18;101223.28;5122708;28;20042;-80
2023/09/07 01:37:05;;;;;;;5.00;1.40;;;;;;;23.97;48.11;101221.34;5118202;28;20505;-79
2023/09/07 01:40:00;;;;;;;2.65;1.70;;;;;;;23.97;48.11;101226.88;5118017;28;20047;-78
2023/09/07 01:42:52;;;;;;;3.40;2.03;;;;;;;23.92;48.11;101224.50;5118842;28;20042;-79
2023/09/07 01:45:47;;;;;;;3.50;1.70;;;;;;;23.88;48.18;101219.72;5120155;28;20038;-79
2023/09/07 01:48:41;;;;;;;3.83;1.65;;;;;;;23.91;48.22;101231.22;5117385;28;20054;-79
2023/09/07 01:51:36;;;;;;;6.00;1.98;;;;;;;23.88;48.21;101225.25;5116941;28;20050;-80
2023/09/07 01:54:31;;;;;;;3.88;1.33;;;;;;;23.91;48.34;101222.91;5118279;28;20051;-79
2023/09/07 01:57:25;;;;;;;4.07;1.83;;;;;;;23.89;48.34;101214.94;5118525;28;20051;-80
2023/09/07 02:00:20;;;;;;;12.88;2.70;;;;;;;23.90;48.18;101218.53;5118483;28;20062;-80
2023/09/07 02:03:15;;;;;;;3.97;2.10;;;;;;;23.86;48.40;101215.75;5116300;28;20051;-80
2023/09/07 02:06:10;;;;;;;3.67;2.30;;;;;;;23.82;48.36;101221.28;5117298;28;20050;-80
2023/09/07 02:09:04;;;;;;;5.88;1.83;;;;;;;23.82;48.26;101203.84;5117984;28;20050;-80
2023/09/07 02:11:57;;;;;;;3.03;1.73;;;;;;;23.85;48.46;101217.72;5121640;28;20088;-79
2023/09/07 02:14:51;;;;;;;4.10;1.67;;;;;;;23.87;48.09;101220.88;5117811;28;20046;-79
2023/09/07 02:17:46;;;;;;;6.07;1.70;;;;;;;23.86;48.25;101222.09;5118164;28;20517;-79
2023/09/07 02:20:41;;;;;;;2.47;1.80;;;;;;;23.94;47.95;101216.53;5121371;28;20047;-79
2023/09/07 02:23:37;;;;;;;4.78;1.75;;;;;;;23.93;48.03;101218.53;5119202;28;20047;-79
2023/09/07 02:26:31;;;;;;;4.30;2.28;;;;;;;23.87;48.32;101212.56;5123715;28;20050;-79
2023/09/07 02:29:26;;;;;;;2.17;1.73;;;;;;;23.91;48.12;101220.13;5123824;28;20047;-79
2023/09/07 02:32:21;;;;;;;2.92;1.67;;;;;;;23.85;48.04;101214.94;5117076;28;20035;-79
2023/09/07 02:35:15;;;;;;;2.15;1.23;;;;;;;23.92;47.96;101225.28;5119722;28;20070;-81
2023/09/07 02:38:10;;;;;;;4.45;1.58;;;;;;;23.94;47.90;101222.91;5122693;28;20517;-80
2023/09/07 02:41:04;;;;;;;4.55;1.30;;;;;;;23.94;47.94;101224.88;5122049;28;20058;-80
2023/09/07 02:43:56;;;;;;;4.72;1.63;;;;;;;23.83;48.26;101220.09;5123267;28;20046;-80
2023/09/07 02:46:51;;;;;;;4.50;2.22;;;;;;;23.69;47.95;101227.59;5113151;28;20058;-79
2023/09/07 02:49:45;;;;;;;3.30;1.40;;;;;;;23.80;48.16;101215.34;5120968;28;20038;-80
2023/09/07 02:52:41;;;;;;;5.45;1.90;;;;;;;23.84;48.13;101223.66;5122390;28;20043;-80
2023/09/07 02:55:36;;;;;;;6.63;1.35;;;;;;;23.81;48.33;101225.25;5118541;28;20047;-79
2023/09/07 02:58:30;;;;;;;17.27;2.35;;;;;;;23.84;48.15;101224.47;5122114;28;20055;-80
2023/09/07 03:01:22;;;;;;;4.63;1.55;;;;;;;23.86;47.82;101226.88;5124147;28;20435;-86
2023/09/07 03:04:12;;;;;;;6.07;1.98;;;;;;;23.76;48.20;101227.63;5129150;28;20042;-87
2023/09/07 03:07:08;;;;;;;6.88;2.17;;;;;;;23.71;48.22;101231.59;5125005;28;20058;-87
2023/09/07 03:09:58;;;;;;;7.43;2.25;;;;;;;23.61;48.47;101231.53;5124221;28;20047;-87
2023/09/07 03:12:52;;;;;;;3.08;2.00;;;;;;;23.55;48.70;101227.56;5128719;28;20050;-87
2023/09/07 03:15:47;;;;;;;5.50;2.00;;;;;;;23.59;48.54;101231.94;5133088;28;20050;-86
2023/09/07 03:18:39;;;;;;;7.95;2.30;;;;;;;23.61;48.46;101221.22;5125513;28;20039;-85
2023/09/07 03:21:35;;;;;;;4.13;1.75;;;;;;;23.57;48.77;101225.19;5125086;28;20047;-85
2023/09/07 03:24:30;;;;;;;6.03;2.15;;;;;;;23.57;48.62;101230.75;5128422;28;20520;-85
2023/09/07 03:27:24;;;;;;;7.22;2.42;;;;;;;23.57;48.64;101222.41;5134712;28;20046;-85
2023/09/07 03:30:16;;;;;;;6.25;2.25;;;;;;;23.46;49.29;101222.38;5130276;28;20038;-86
2023/09/07 03:33:11;;;;;;;6.00;2.22;;;;;;;23.47;49.39;101231.50;5130879;28;20053;-85
2023/09/07 03:36:05;;;;;;;3.13;2.15;;;;;;;23.44;49.07;101230.25;5132779;28;20047;-84
2023/09/07 03:39:00;;;;;;;4.78;1.83;;;;;;;23.43;49.16;101220.31;5134545;28;20046;-86
2023/09/07 03:41:52;;;;;;;5.97;1.90;;;;;;;23.51;48.93;101226.75;5129638;28;20051;-86
2023/09/07 03:44:48;;;;;;;5.35;2.60;;;;;;;23.37;48.75;101224.66;5136385;28;20053;-85
2023/09/07 03:47:42;;;;;;;5.25;1.80;;;;;;;23.37;49.23;101224.66;5134689;28;20046;-85
2023/09/07 03:50:37;;;;;;;3.78;1.95;;;;;;;23.36;49.42;101217.53;5133677;28;20046;-86
2023/09/07 03:53:29;;;;;;;2.60;1.90;;;;;;;23.32;49.42;101214.72;5130353;28;20039;-85
2023/09/07 03:56:24;;;;;;;2.55;1.80;;;;;;;23.33;49.40;101221.06;5131106;28;20050;-85
2023/09/07 03:59:22;;;;;;;2.90;1.98;;;;;;;23.32;49.62;101222.25;5135889;28;20042;-85
2023/09/07 04:02:16;;;;;;;2.72;1.70;;;;;;;23.21;49.63;101221.44;5134728;28;20047;-85
2023/09/07 04:05:09;;;;;;;5.00;2.40;;;;;;;23.24;49.38;101226.19;5132422;28;20047;-86
2023/09/07 04:08:04;;;;;;;8.13;2.05;;;;;;;23.33;49.63;101226.63;5124274;28;20050;-85
2023/09/07 04:10:59;;;;;;;4.63;2.08;;;;;;;23.36;49.13;101223.88;5109250;28;20076;-85
2023/09/07 04:13:53;;;;;;;9.00;1.67;;;;;;;23.25;49.46;101220.25;5123070;28;20039;-86
2023/09/07 04:16:48;;;;;;;5.88;2.40;;;;;;;23.19;49.92;101215.47;5134550;28;20046;-85
2023/09/07 04:19:43;;;;;;;3.38;1.73;;;;;;;23.28;49.42;101224.22;5131464;28;20043;-86
2023/09/07 04:22:37;;;;;;;4.00;1.70;;;;;;;23.30;49.27;101227.41;5129882;28;20050;-85
2023/09/07 04:25:32;;;;;;;3.63;1.80;;;;;;;23.25;49.67;101231.38;5132984;28;20042;-85
2023/09/07 04:28:26;;;;;;;2.72;1.75;;;;;;;23.25;49.51;101225.81;5135036;28;20039;-85
2023/09/07 04:31:21;;;;;;;2.92;2.08;;;;;;;23.18;49.55;101231.31;5130470;28;20042;-85
2023/09/07 04:34:18;;;;;;;3.10;1.70;;;;;;;23.12;49.71;101232.06;5120356;28;20038;-86
2023/09/07 04:37:13;;;;;;;4.90;2.25;;;;;;;22.96;50.14;101224.03;5115043;28;20410;-85
2023/09/07 04:40:05;;;;;;;4.07;1.73;;;;;;;22.93;50.35;101228.41;5121035;28;20043;-86
2023/09/07 04:42:57;;;;;;;7.85;2.83;;;;;;;22.91;50.26;101222.44;5123715;28;20042;-86
2023/09/07 04:45:50;;;;;;;8.57;2.08;;;;;;;22.89;50.23;101229.56;5116258;28;20047;-85
2023/09/07 04:48:45;;;;;;;2.42;1.65;;;;;;;22.87;50.25;101238.25;5126870;28;20050;-85
2023/09/07 04:51:37;;;;;;;4.03;2.28;;;;;;;22.78;50.36;101239.78;5124361;28;20026;-85
2023/09/07 04:54:33;;;;;;;11.65;2.38;;;;;;;22.89;49.95;101235.91;5128534;28;20050;-85
2023/09/07 04:57:26;;;;;;;5.07;1.95;;;;;;;22.96;49.63;101240.69;5127633;28;20038;-86
2023/09/07 05:00:22;;;;;;;7.05;1.73;;;;;;;23.06;49.71;101255.84;5120444;28;20038;-84
2023/09/07 05:03:14;;;;;;;3.80;2.13;;;;;;;23.05;49.56;101241.16;5127171;28;20051;-85
2023/09/07 05:06:09;;;;;;;6.15;1.95;;;;;;;23.00;50.19;101245.09;5127831;28;20050;-86
2023/09/07 05:09:03;;;;;;;11.25;2.03;;;;;;;22.88;50.20;101244.59;5124706;28;20042;-84
2023/09/07 05:11:58;;;;;;;7.38;2.42;;;;;;;22.48;50.81;101240.72;5107415;28;20516;-86
2023/09/07 05:14:50;;;;;;;4.43;1.85;;;;;;;22.46;51.07;101245.03;5114582;28;20047;-87
2023/09/07 05:17:45;;;;;;;14.55;2.47;;;;;;;22.42;51.08;101245.00;5114808;28;20042;-87
2023/09/07 05:20:40;;;;;;;6.88;2.05;;;;;;;22.45;51.22;101249.00;5110248;28;20415;-87
2023/09/07 05:23:34;;;;;;;6.55;2.20;;;;;;;22.42;51.17;101244.22;5119984;28;20042;-87
2023/09/07 05:26:30;;;;;;;14.35;2.53;;;;;;;22.38;51.58;101249.72;5123797;28;20035;-87
2023/09/07 05:29:24;;;;;;;8.52;3.65;;;;;;;22.36;51.61;101242.97;5121551;28;20046;-87
2023/09/07 05:32:19;;;;;;;6.65;2.47;;;;;;;22.45;51.44;101254.56;5123800;28;20422;-86
2023/09/07 05:35:12;;;;;;;11.52;2.72;;;;;;;22.48;51.44;101251.78;5105525;28;20529;-83
2023/09/07 05:38:04;;;;;;;18.52;2.88;;;;;;;22.53;51.43;101253.41;5104634;28;20050;-87
2023/09/07 05:40:59;;;;;;;10.27;2.30;;;;;;;22.58;51.54;101256.63;5104653;28;20038;-86
2023/09/07 05:43:53;;;;;;;14.98;2.50;;;;;;;22.47;51.70;101257.72;5111340;28;20058;-88
2023/09/07 05:46:48;;;;;;;8.50;2.65;;;;;;;22.36;52.27;101257.63;5125355;27;20054;-85
2023/09/07 05:49:43;;;;;;;10.50;2.22;;;;;;;22.36;52.24;101257.63;5129551;28;20050;-83
2023/09/07 05:52:35;;;;;;;14.27;2.63;;;;;;;22.39;52.45;101258.84;5139301;27;20038;-84
2023/09/07 05:55:25;;;;;;;10.90;2.92;;;;;;;22.38;52.61;101255.28;5117326;28;20067;-83
2023/09/07 05:58:12;;;;;;;25.52;3.63;;;;;;;22.41;52.81;101257.28;5123303;28;20054;-84
2023/09/07 06:01:08;;;;;;;13.05;3.30;;;;;;;22.53;52.05;101264.50;5127501;28;20053;-83
2023/09/07 06:04:01;;;;;;;8.75;2.40;;;;;;;22.83;51.16;101259.63;5122301;28;20051;-83
2023/09/07 06:06:53;;;;;;;10.38;2.30;;;;;;;22.69;52.18;101270.59;5127681;28;20063;-85
2023/09/07 06:09:45;;;;;;;4.95;2.10;;;;;;;22.69;52.41;101267.00;5132711;28;20043;-85
2023/09/07 06:12:40;;;;;;;10.10;2.47;;;;;;;22.63;52.19;101263.00;5122276;28;20043;-83
2023/09/07 06:15:35;;;;;;;15.95;3.22;;;;;;;22.79;52.11;101258.00;5128931;28;20047;-84
2023/09/07 06:18:29;;;;;;;9.68;2.80;;;;;;;22.76;52.14;101259.56;5130904;28;20418;-83
2023/09/07 06:21:24;;;;;;;5.63;2.13;;;;;;;22.89;51.95;101262.84;5121352;28;20035;-83
2023/09/07 06:24:19;;;;;;;6.70;2.42;;;;;;;22.98;51.79;101254.97;5132764;28;20050;-83
2023/09/07 06:27:13;;;;;;;5.43;2.10;;;;;;;23.04;52.04;101261.75;5129038;28;20046;-84
2023/09/07 06:30:05;;;;;;;3.25;2.13;;;;;;;23.13;51.97;101266.94;5128874;28;20046;-83
2023/09/07 06:32:57;;;;;;;5.85;2.78;;;;;;;23.03;52.50;101260.97;5124632;28;20043;-84
2023/09/07 06:35:50;;;;;;;6.38;2.05;;;;;;;22.99;52.62;101264.91;5129404;28;20026;-84
2023/09/07 06:38:43;;;;;;;7.47;2.15;;;;;;;23.16;52.27;101266.97;5132973;28;20046;-84
2023/09/07 06:41:38;;;;;;;8.25;2.40;;;;;;;23.25;51.99;101272.19;5128683;28;20051;-83
2023/09/07 06:44:33;;;;;;;15.13;2.25;;;;;;;23.31;52.28;101271.44;5128656;28;20413;-84
2023/09/07 06:47:27;;;;;;;6.43;2.53;;;;;;;23.48;51.77;101275.50;5122204;28;20039;-84
2023/09/07 06:50:22;;;;;;;9.18;2.20;;;;;;;23.38;52.45;101284.53;5124021;28;20035;-83
2023/09/07 06:53:16;;;;;;;7.32;1.98;;;;;;;23.51;52.08;101283.06;5127641;28;20051;-84
2023/09/07 06:56:09;;;;;;;7.07;1.85;;;;;;;23.58;52.25;101291.41;5122625;28;20026;-84
2023/09/07 06:59:03;;;;;;;7.20;2.08;;;;;;;23.70;51.85;101299.41;5118102;28;20054;-84
2023/09/07 07:01:59;;;;;;;8.43;1.55;;;;;;;23.81;51.40;101291.94;5124933;28;20044;-84
2023/09/07 07:04:51;;;;;;;7.75;2.00;;;;;;;23.93;50.87;101295.53;5120082;28;20053;-84
2023/09/07 07:07:46;;;;;;;9.43;2.67;;;;;;;23.93;51.51;101293.53;5122852;28;20535;-85
2023/09/07 07:10:34;;;;;;;11.05;1.80;;;;;;;24.24;50.53;101297.63;5124001;28;20035;-84
2023/09/07 07:13:29;;;;;;;3.70;1.35;;;;;;;24.69;49.03;101288.53;5122146;27;20058;-84
2023/09/07 07:16:21;;;;;;;8.68;1.95;;;;;;;25.06;47.85;101295.69;5128312;28;20058;-86
2023/09/07 07:19:14;;;;;;;8.82;2.20;;;;;;;25.41;46.65;101292.03;5122425;27;20039;-86
2023/09/07 07:22:09;;;;;;;6.38;2.17;;;;;;;25.61;46.21;101289.59;5125339;28;20050;-85
2023/09/07 07:25:05;;;;;;;6.03;2.47;;;;;;;25.50;46.39;101293.19;5139004;28;20053;-86
2023/09/07 07:27:59;;;;;;;16.20;2.30;;;;;;;25.29;48.23;101301.63;5139583;28;20054;-86
2023/09/07 07:30:54;;;;;;;5.15;2.08;;;;;;;25.23;48.96;101302.44;5134405;28;20051;-85
2023/09/07 07:33:48;;;;;;;11.48;2.63;;;;;;;25.28;48.47;101299.25;5131630;28;20046;-86
2023/09/07 07:36:42;;;;;;;32.63;7.75;;;;;;;25.12;48.45;101305.22;5131573;28;20039;-85
2023/09/07 07:39:36;;;;;;;49.13;9.20;;;;;;;25.13;48.60;101298.47;5133215;28;20050;-85
2023/09/07 07:42:32;;;;;;;32.15;6.72;;;;;;;25.08;48.68;101304.44;5131755;28;20046;-85
2023/09/07 07:45:25;;;;;;;32.50;6.13;;;;;;;25.26;47.73;101304.41;5132196;27;20032;-84
2023/09/07 07:48:19;;;;;;;37.50;7.40;;;;;;;25.06;48.40;101304.03;5131699;28;20050;-87
2023/09/07 07:51:14;;;;;;;26.48;5.85;;;;;;;25.27;47.95;101301.22;5128696;28;20047;-87
2023/09/07 07:54:06;;;;;;;29.42;6.28;;;;;;;25.11;48.20;101298.88;5133072;28;20156;-87
2023/09/07 07:57:01;;;;;;;25.17;5.45;;;;;;;25.30;47.84;101299.63;5130734;28;20043;-86
2023/09/07 07:59:56;;;;;;;25.48;4.90;;;;;;;25.34;47.40;101301.22;5132857;28;20034;-86
2023/09/07 08:02:48;;;;;;;12.13;2.67;;;;;;;25.62;43.55;101296.78;5112107;28;20055;-86
2023/09/07 08:05:43;;;;;;;27.08;5.45;;;;;;;25.51;46.23;101299.56;5124164;28;20043;-86
2023/09/07 08:08:35;;;;;;;;;;;;;;;25.30;47.33;101297.63;5116507;28;20046;-86
2023/09/07 08:11:27;;;;;;;12.70;3.50;;;;;;;25.62;45.83;101291.19;5108252;28;19920;-86
2023/09/07 08:14:23;;;;;;;16.65;3.55;;;;;;;25.77;44.46;101295.53;5129169;28;20047;-85
2023/09/07 08:17:13;;;;;;;11.10;3.13;;;;;;;25.70;45.68;101298.34;5125799;28;20050;-86
2023/09/07 08:20:08;;;;;;;7.85;2.42;;;;;;;25.57;45.40;101289.63;5124428;28;20422;-86
2023/09/07 08:23:03;;;;;;;2.15;1.40;;;;;;;26.47;40.80;101297.13;5128670;28;20385;-85
2023/09/07 08:25:58;;;;;;;5.75;2.40;;;;;;;26.11;43.23;101295.75;5125498;28;20050;-86
2023/09/07 08:28:53;;;;;;;7.57;1.95;;;;;;;26.41;42.60;101295.19;5129579;28;20043;-85
2023/09/07 08:31:48;;;;;;;7.53;2.05;;;;;;;26.27;42.38;101294.06;5129220;28;20048;-85
2023/09/07 08:34:46;;;;;;;7.10;2.63;;;;;;;26.07;43.75;101304.13;5130187;27;20429;-86
2023/09/07 08:37:41;;;;;;;4.63;1.88;;;;;;;25.83;44.35;101293.91;5130632;28;20046;-86
2023/09/07 08:40:34;;;;;;;6.65;1.80;;;;;;;26.01;42.88;101293.84;5132283;28;20126;-86
2023/09/07 08:43:22;;;;;;;3.28;2.00;;;;;;;25.86;43.39;101296.66;5130177;28;20050;-85
2023/09/07 08:46:20;;;;;;;3.97;1.60;;;;;;;25.79;44.03;101293.13;5132801;28;20042;-86
2023/09/07 08:49:13;;;;;;;4.90;1.60;;;;;;;26.11;43.19;101290.94;5130749;28;20050;-85
2023/09/07 08:52:06;;;;;;;8.15;1.55;;;;;;;26.61;39.72;101297.03;5132714;28;20050;-87
2023/09/07 08:55:02;;;;;;;2.35;1.30;;;;;;;27.09;40.26;101302.59;5125597;28;20054;-86
2023/09/07 08:57:54;;;;;;;2.50;1.52;;;;;;;26.48;41.62;101287.56;5130049;28;20476;-87
2023/09/07 09:00:49;;;;;;;5.40;2.10;;;;;;;26.99;38.49;101295.13;5131816;28;20050;-87
2023/09/07 09:03:44;;;;;;;3.28;1.23;;;;;;;26.95;39.72;101297.16;5130644;28;20044;-87
2023/09/07 09:06:36;;;;;;;;;;;;;;;26.79;39.79;101308.84;5130236;28;20054;-86
2023/09/07 09:09:30;;;;;;;2.85;1.58;;;;;;;26.34;42.01;101299.63;5132523;28;19915;-86
2023/09/07 09:12:20;;;;;;;;;;;;;;;26.27;40.55;101291.28;5136325;28;20073;-86
2023/09/07 09:15:12;;;;;;;4.18;1.77;;;;;;;26.25;41.75;101299.28;5132970;28;19912;-87
2023/09/07 09:18:14;;;;;;;2.17;1.48;;;;;;;27.70;35.68;101291.56;5131290;28;20049;-86
2023/09/07 09:21:05;;;;;;;4.25;1.65;;;;;;;27.96;36.03;101288.03;5128056;28;20051;-86
2023/09/07 09:24:00;;;;;;;11.57;1.77;;;;;;;28.04;35.66;101292.31;5132413;28;20045;-86
2023/09/07 09:26:53;;;;;;;4.00;1.52;;;;;;;27.11;38.74;101286.25;5128731;28;20055;-86
2023/09/07 09:29:45;;;;;;;2.08;1.40;;;;;;;26.64;39.87;101284.25;5133133;28;20061;-86
2023/09/07 09:32:37;;;;;;;3.58;1.83;;;;;;;25.91;42.07;101287.88;5131159;28;20038;-86
2023/09/07 09:35:30;;;;;;;3.58;1.83;;;;;;;26.15;40.69;101286.19;5128799;28;20046;-86
2023/09/07 09:38:25;;;;;;;4.85;1.90;;;;;;;26.19;41.17;101286.16;5129202;28;20045;-86
2023/09/07 09:41:18;;;;;;;;;;;;;;;26.12;41.34;101286.19;5131068;28;20410;-87
2023/09/07 09:44:14;;;;;;;4.05;1.70;;;;;;;26.04;40.74;101282.66;5133427;28;19915;-87
2023/09/07 09:47:11;;;;;;;2.40;1.88;;;;;;;25.79;42.43;101287.56;5128572;28;20041;-86
2023/09/07 09:50:04;;;;;;;2.95;1.60;;;;;;;26.07;40.39;101284.59;5129089;28;20075;-86
2023/09/07 09:52:59;;;;;;;4.80;1.40;;;;;;;26.17;39.23;101272.59;5131865;28;20050;-86
2023/09/07 09:55:57;;;;;;;11.20;1.55;;;;;;;26.39;40.13;101274.09;5129321;28;20038;-87
2023/09/07 09:58:49;;;;;;;2.97;1.58;;;;;;;26.90;37.94;101275.28;5133348;28;20047;-86
2023/09/07 10:01:48;;;;;;;8.20;1.42;;;;;;;28.32;32.91;101279.94;5129162;28;20042;-87
2023/09/07 10:04:43;;;;;;;6.38;1.52;;;;;;;28.43;33.83;101272.19;5128201;28;20050;-86
2023/09/07 10:07:49;;;;;;;5.82;1.60;;;;;;;27.49;35.36;101277.81;5128802;28;20050;-86
2023/09/07 10:10:44;;;;;;;7.30;1.58;;;;;;;28.40;33.48;101266.63;5128317;28;20046;-87
2023/09/07 10:13:34;;;;;;;2.83;1.33;;;;;;;28.15;33.86;101263.44;5128318;28;20049;-86
2023/09/07 10:16:26;;;;;;;4.78;1.55;;;;;;;28.31;33.45;101255.97;5130265;28;20054;-86
2023/09/07 10:19:22;;;;;;;3.90;1.65;;;;;;;27.60;35.42;101256.16;5127538;28;20069;-87
2023/09/07 10:22:26;;;;;;;14.40;1.80;;;;;;;28.18;34.44;101257.00;5128855;28;20046;-85
2023/09/07 10:25:22;;;;;;;2.33;1.50;;;;;;;27.62;36.35;101246.19;5126083;28;20043;-87
2023/09/07 10:28:29;;;;;;;3.03;1.45;;;;;;;27.20;37.17;101250.22;5128579;28;20053;-88
2023/09/07 10:31:30;;;;;;;4.03;1.90;;;;;;;28.28;34.89;101251.25;5126373;28;20529;-87
2023/09/07 10:34:20;;;;;;;5.35;2.15;;;;;;;27.70;36.35;101244.06;5122063;28;20046;-87
2023/09/07 10:37:13;;;;;;;4.15;1.70;;;;;;;28.22;35.47;101243.75;5109363;28;20043;-85
2023/09/07 10:40:11;;;;;;;2.60;1.40;;;;;;;28.35;34.74;101239.94;5120366;28;20051;-85
2023/09/07 10:43:05;;;;;;;7.05;1.52;;;;;;;28.04;35.97;101241.19;5128947;28;20413;-86
2023/09/07 10:45:56;;;;;;;;;;;;;;;28.39;34.51;101231.50;5125310;28;20524;-85
2023/09/07 10:48:51;;;;;;;3.13;1.75;;;;;;;27.90;35.95;101236.59;5127050;27;20450;-86
2023/09/07 10:51:44;;;;;;;2.78;1.48;;;;;;;28.02;35.25;101224.84;5125322;27;20047;-86
2023/09/07 10:54:36;;;;;;;8.10;1.60;;;;;;;28.41;34.99;101227.03;5131597;28;20046;-86
2023/09/07 10:57:30;;;;;;;4.35;1.70;;;;;;;28.88;34.67;101222.25;5123737;27;20051;-85
2023/09/07 11:00:25;;;;;;;73.10;6.13;;;;;;;29.24;32.08;101227.16;5124692;28;20051;-85
2023/09/07 11:03:14;;;;;;;5.78;1.65;;;;;;;29.13;31.74;101223.78;5140141;27;20399;-85
2023/09/07 11:06:08;;;;;;;3.25;1.45;;;;;;;29.28;32.20;101222.28;5133335;28;20042;-85
2023/09/07 11:09:08;;;;;;;10.90;1.70;;;;;;;29.09;32.17;101218.25;5122514;28;20054;-85
2023/09/07 11:12:08;;;;;;;5.30;1.70;;;;;;;29.41;31.82;101214.81;5126158;28;20039;-85
2023/09/07 11:15:00;;;;;;;3.05;1.50;;;;;;;29.36;32.76;101220.91;5130982;28;20042;-85
2023/09/07 11:17:55;;;;;;;5.97;1.60;;;;;;;29.56;31.79;101207.69;5129792;28;20043;-85
2023/09/07 11:20:47;;;;;;;2.10;1.23;;;;;;;29.33;30.60;101205.78;5119495;27;20043;-85
2023/09/07 11:23:40;;;;;;;6.32;1.52;;;;;;;28.95;32.20;101209.34;5131853;28;20121;-85
2023/09/07 11:26:44;;;;;;;2.58;1.15;;;;;;;28.78;32.97;101203.63;5130233;28;20047;-86
2023/09/07 11:29:38;;;;;;;5.55;2.05;;;;;;;28.89;33.20;101207.03;5117673;28;20043;-84
2023/09/07 11:32:38;;;;;;;2.10;1.80;;;;;;;28.55;33.75;101200.81;5119989;28;20045;-85
2023/09/07 11:35:30;;;;;;;18.55;1.90;;;;;;;28.32;34.96;101195.22;5131016;28;20042;-85
2023/09/07 11:38:25;;;;;;;2.67;1.55;;;;;;;28.73;33.29;101190.13;5120345;28;20059;-85
2023/09/07 11:41:19;;;;;;;7.10;1.73;;;;;;;28.96;33.72;101200.47;5117407;28;20047;-85
2023/09/07 11:44:10;;;;;;;3.58;1.80;;;;;;;29.32;33.00;101195.00;5116738;28;20042;-84
2023/09/07 11:47:03;;;;;;;2.33;1.95;;;;;;;29.21;33.17;101183.97;5127004;28;20042;-83
2023/09/07 11:49:53;;;;;;;2.85;1.45;;;;;;;28.34;34.61;101190.00;5118527;28;20042;-85
2023/09/07 11:52:49;;;;;;;4.18;2.00;;;;;;;28.41;34.64;101178.69;5123852;28;20395;-84
2023/09/07 11:55:40;;;;;;;;;;;;;;;28.82;33.63;101170.75;5129856;28;20813;-85
2023/09/07 11:58:33;;;;;;;4.18;2.03;;;;;;;29.17;33.96;101174.06;5129909;28;19911;-84
2023/09/07 12:01:27;;;;;;;1.80;1.48;;;;;;;29.64;31.79;101178.28;5130360;28;20046;-84
2023/09/07 12:04:22;;;;;;;3.88;1.27;;;;;;;29.77;31.27;101181.19;5121458;28;20054;-84
2023/09/07 12:07:18;;;;;;;6.32;1.35;;;;;;;29.91;30.68;101185.72;5130940;28;20055;-84
2023/09/07 12:10:13;;;;;;;1.65;1.27;;;;;;;28.61;34.40;101170.31;5122768;28;20051;-84
2023/09/07 12:13:08;;;;;;;2.88;1.35;;;;;;;29.33;33.11;101174.94;5130901;28;20042;-84
2023/09/07 12:16:00;;;;;;;2.83;1.52;;;;;;;29.40;32.10;101168.41;5109204;28;20046;-84
2023/09/07 12:18:55;;;;;;;7.95;1.70;;;;;;;29.83;31.21;101167.44;5136181;28;20046;-84
2023/09/07 12:21:49;;;;;;;6.22;1.90;;;;;;;29.62;32.38;101163.91;5121368;28;20537;-84
2023/09/07 12:24:44;;;;;;;2.70;1.60;;;;;;;29.49;31.83;101160.19;5128781;28;20041;-84
2023/09/07 12:27:34;;;;;;;3.65;1.30;;;;;;;29.76;31.35;101157.94;5131417;28;20042;-84
2023/09/07 12:30:28;;;;;;;1.85;1.60;;;;;;;29.50;32.09;101144.97;5128777;28;20050;-85
2023/09/07 12:33:18;;;;;;;2.53;1.45;;;;;;;29.43;32.28;101149.94;5132581;28;20030;-84
2023/09/07 12:36:13;;;;;;;3.20;1.45;;;;;;;29.70;31.98;101142.09;5139323;27;20050;-85
2023/09/07 12:39:03;;;;;;;2.65;1.70;;;;;;;29.80;31.86;101138.25;5139204;27;20042;-84
2023/09/07 12:41:58;;;;;;;3.83;1.55;;;;;;;29.11;33.52;101144.97;5137211;27;20042;-86
2023/09/07 12:44:53;;;;;;;2.15;1.40;;;;;;;29.33;33.13;101146.13;5145119;27;20042;-84
2023/09/07 12:47:48;;;;;;;2.67;1.42;;;;;;;29.63;32.50;101140.25;5150247;27;20128;-85
2023/09/07 12:50:40;;;;;;;7.68;1.70;;;;;;;29.76;32.27;101145.97;5150006;27;20046;-84
2023/09/07 12:53:34;;;;;;;7.47;1.75;;;;;;;29.53;32.28;101132.09;5128594;28;20062;-85
2023/09/07 12:56:27;;;;;;;3.90;2.08;;;;;;;29.97;31.70;101131.44;5129718;28;20038;-84
2023/09/07 12:59:22;;;;;;;6.40;1.85;;;;;;;30.08;31.54;101123.56;5129548;28;20046;-85
2023/09/07 13:02:16;;;;;;;2.38;1.50;;;;;;;29.84;32.21;101130.53;5133607;28;20042;-84
2023/09/07 13:05:11;;;;;;;6.32;2.13;;;;;;;29.74;32.72;101123.97;5122246;28;20046;-81
2023/09/07 13:08:06;;;;;;;5.65;1.50;;;;;;;29.67;32.28;101118.53;5120680;28;20042;-81
2023/09/07 13:10:58;;;;;;;9.35;2.05;;;;;;;29.71;32.56;101119.22;5119269;28;20050;-82
2023/09/07 13:13:52;;;;;;;6.47;2.20;;;;;;;29.85;31.35;101118.09;5119714;28;20066;-82
2023/09/07 13:16:44;;;;;;;5.95;1.70;;;;;;;29.89;32.29;101110.41;5118865;28;20055;-81
2023/09/07 13:19:37;;;;;;;12.48;2.58;;;;;;;30.00;32.21;101110.94;5120130;28;20063;-80
2023/09/07 13:22:31;;;;;;;6.25;2.08;;;;;;;30.04;31.32;101100.41;5118094;28;20090;-79
2023/09/07 13:25:26;;;;;;;8.88;1.98;;;;;;;30.09;31.60;101104.72;5118265;28;20043;-81
2023/09/07 13:28:20;;;;;;;4.47;1.67;;;;;;;30.09;32.12;101104.72;5122617;28;20058;-83
2023/09/07 13:31:12;;;;;;;6.53;1.60;;;;;;;29.85;32.21;101098.47;5125199;28;20536;-82